sensor_id;sensor_type;location;lat;lon;timestamp;pressure;altitude;pressure_sealevel;temperature;humidity
37298;BME280;30517;51.932;4.278;2023-10-09T00:00:45;102097.22;;;19.31;59.69
37298;BME280;30517;51.932;4.278;2023-10-09T00:03:44;102056.56;;;19.11;59.78
37298;BME280;30517;51.932;4.278;2023-10-09T00:06:44;102072.50;;;19.17;60.07
37298;BME280;30517;51.932;4.278;2023-10-09T00:09:45;102074.28;;;19.18;60.08
37298;BME280;30517;51.932;4.278;2023-10-09T00:12:44;102076.81;;;19.26;59.86
37298;BME280;30517;51.932;4.278;2023-10-09T00:15:47;102061.97;;;19.08;60.06
37298;BME280;30517;51.932;4.278;2023-10-09T00:18:51;102066.31;;;19.15;59.99
37298;BME280;30517;51.932;4.278;2023-10-09T00:21:52;102031.03;;;18.94;59.89
37298;BME280;30517;51.932;4.278;2023-10-09T00:24:57;102072.34;;;19.26;59.92
37298;BME280;30517;51.932;4.278;2023-10-09T00:28:20;102053.03;;;19.09;60.25
37298;BME280;30517;51.932;4.278;2023-10-09T00:31:21;102076.91;;;19.21;60.53
37298;BME280;30517;51.932;4.278;2023-10-09T00:34:32;102054.75;;;19.13;59.97
37298;BME280;30517;51.932;4.278;2023-10-09T00:37:38;102069.00;;;19.15;60.23
37298;BME280;30517;51.932;4.278;2023-10-09T00:40:38;102054.84;;;19.08;60.49
37298;BME280;30517;51.932;4.278;2023-10-09T00:43:44;102075.97;;;19.22;60.08
37298;BME280;30517;51.932;4.278;2023-10-09T00:46:43;102075.97;;;19.22;59.94
37298;BME280;30517;51.932;4.278;2023-10-09T00:49:54;101945.44;;;18.46;60.10
37298;BME280;30517;51.932;4.278;2023-10-09T00:53:21;102038.06;;;19.00;59.81
37298;BME280;30517;51.932;4.278;2023-10-09T00:56:31;102078.72;;;19.19;60.02
37298;BME280;30517;51.932;4.278;2023-10-09T00:59:37;102068.06;;;19.16;60.53
37298;BME280;30517;51.932;4.278;2023-10-09T01:02:38;102063.69;;;19.12;60.17
37298;BME280;30517;51.932;4.278;2023-10-09T01:05:49;102061.78;;;19.20;60.01
37298;BME280;30517;51.932;4.278;2023-10-09T01:09:14;102042.38;;;19.07;60.66
37298;BME280;30517;51.932;4.278;2023-10-09T01:12:15;102035.25;;;19.08;60.26
37298;BME280;30517;51.932;4.278;2023-10-09T01:15:18;102028.09;;;19.10;60.06
37298;BME280;30517;51.932;4.278;2023-10-09T01:18:34;102021.84;;;19.09;60.17
37298;BME280;30517;51.932;4.278;2023-10-09T01:21:37;102038.59;;;19.19;60.21
37298;BME280;30517;51.932;4.278;2023-10-09T01:24:39;102036.78;;;19.21;60.07
37298;BME280;30517;51.932;4.278;2023-10-09T01:27:39;102003.16;;;19.08;60.10
37298;BME280;30517;51.932;4.278;2023-10-09T01:30:43;102022.53;;;19.20;60.15
37298;BME280;30517;51.932;4.278;2023-10-09T01:33:42;102023.34;;;19.24;59.85
37298;BME280;30517;51.932;4.278;2023-10-09T01:36:43;102016.34;;;19.17;59.96
37298;BME280;30517;51.932;4.278;2023-10-09T01:39:57;102009.03;;;19.25;60.26
37298;BME280;30517;51.932;4.278;2023-10-09T01:42:57;101829.34;;;18.18;60.13
37298;BME280;30517;51.932;4.278;2023-10-09T01:45:57;102012.56;;;19.29;59.85
37298;BME280;30517;51.932;4.278;2023-10-09T01:48:59;102009.03;;;19.25;60.09
37298;BME280;30517;51.932;4.278;2023-10-09T01:52:07;101978.16;;;19.09;59.82
37298;BME280;30517;51.932;4.278;2023-10-09T01:55:08;101972.94;;;19.02;60.26
37298;BME280;30517;51.932;4.278;2023-10-09T01:58:11;102009.91;;;19.27;60.13
37298;BME280;30517;51.932;4.278;2023-10-09T02:01:31;101995.72;;;19.23;60.00
37298;BME280;30517;51.932;4.278;2023-10-09T02:04:32;101989.44;;;19.24;60.17
37298;BME280;30517;51.932;4.278;2023-10-09T02:07:32;101990.44;;;19.20;60.16
37298;BME280;30517;51.932;4.278;2023-10-09T02:10:39;101951.75;;;18.93;60.17
37298;BME280;30517;51.932;4.278;2023-10-09T02:13:46;102011.78;;;19.22;60.12
37298;BME280;30517;51.932;4.278;2023-10-09T02:16:52;102007.28;;;19.24;60.34
37298;BME280;30517;51.932;4.278;2023-10-09T02:20:01;102012.66;;;19.22;60.24
37298;BME280;30517;51.932;4.278;2023-10-09T02:23:15;101998.38;;;19.23;60.16
37298;BME280;30517;51.932;4.278;2023-10-09T02:26:17;102012.66;;;19.22;60.33
37298;BME280;30517;51.932;4.278;2023-10-09T02:29:36;102001.06;;;19.22;60.36
37298;BME280;30517;51.932;4.278;2023-10-09T02:32:37;101951.03;;;18.82;60.05
37298;BME280;30517;51.932;4.278;2023-10-09T02:35:38;101955.38;;;18.89;60.18
37298;BME280;30517;51.932;4.278;2023-10-09T02:38:41;101996.72;;;19.16;59.98
37298;BME280;30517;51.932;4.278;2023-10-09T02:41:41;101999.31;;;19.21;60.14
37298;BME280;30517;51.932;4.278;2023-10-09T02:44:48;101960.44;;;19.05;60.35
37298;BME280;30517;51.932;4.278;2023-10-09T02:47:50;101985.03;;;19.22;60.21
37298;BME280;30517;51.932;4.278;2023-10-09T02:50:50;101903.06;;;18.76;59.88
37298;BME280;30517;51.932;4.278;2023-10-09T02:53:49;101986.75;;;19.24;60.05
37298;BME280;30517;51.932;4.278;2023-10-09T02:56:51;101960.38;;;19.08;60.21
37298;BME280;30517;51.932;4.278;2023-10-09T02:59:55;101974.34;;;19.22;60.11
37298;BME280;30517;51.932;4.278;2023-10-09T03:02:56;101960.28;;;19.11;60.08
37298;BME280;30517;51.932;4.278;2023-10-09T03:05:56;101954.94;;;19.11;60.01
37298;BME280;30517;51.932;4.278;2023-10-09T03:08:58;101980.59;;;19.21;60.16
37298;BME280;30517;51.932;4.278;2023-10-09T03:12:00;101960.16;;;19.17;60.22
37298;BME280;30517;51.932;4.278;2023-10-09T03:15:04;101932.75;;;19.07;60.05
37298;BME280;30517;51.932;4.278;2023-10-09T03:18:07;101971.66;;;19.22;60.18
37298;BME280;30517;51.932;4.278;2023-10-09T03:21:06;101961.84;;;19.22;60.11
37298;BME280;30517;51.932;4.278;2023-10-09T03:24:06;101943.34;;;19.12;60.21
37298;BME280;30517;51.932;4.278;2023-10-09T03:27:07;101966.34;;;19.20;60.25
37298;BME280;30517;51.932;4.278;2023-10-09T03:30:07;101932.16;;;18.91;60.11
37298;BME280;30517;51.932;4.278;2023-10-09T03:33:09;101971.88;;;19.11;60.10
37298;BME280;30517;51.932;4.278;2023-10-09T03:36:13;102000.19;;;19.23;59.99
37298;BME280;30517;51.932;4.278;2023-10-09T03:39:15;101978.28;;;19.02;60.14
37298;BME280;30517;51.932;4.278;2023-10-09T03:42:34;102014.38;;;19.25;60.13
37298;BME280;30517;51.932;4.278;2023-10-09T03:45:35;102014.50;;;19.20;60.30
37298;BME280;30517;51.932;4.278;2023-10-09T03:48:34;102002.13;;;19.15;60.04
37298;BME280;30517;51.932;4.278;2023-10-09T03:51:35;101958.84;;;18.93;60.20
37298;BME280;30517;51.932;4.278;2023-10-09T03:54:35;101953.56;;;18.91;60.30
37298;BME280;30517;51.932;4.278;2023-10-09T03:57:37;101859.09;;;18.44;60.14
37298;BME280;30517;51.932;4.278;2023-10-09T04:00:38;101930.66;;;18.78;60.05
37298;BME280;30517;51.932;4.278;2023-10-09T04:03:44;101964.97;;;19.01;60.29
37298;BME280;30517;51.932;4.278;2023-10-09T04:06:43;102004.75;;;19.18;60.12
37298;BME280;30517;51.932;4.278;2023-10-09T04:09:45;101979.81;;;19.14;59.99
37298;BME280;30517;51.932;4.278;2023-10-09T04:12:50;101851.00;;;18.49;60.18
37298;BME280;30517;51.932;4.278;2023-10-09T04:15:51;101959.22;;;19.21;60.20
37298;BME280;30517;51.932;4.278;2023-10-09T04:18:52;101964.78;;;19.10;61.82
37298;BME280;30517;51.932;4.278;2023-10-09T04:21:55;101949.28;;;19.26;61.00
37298;BME280;30517;51.932;4.278;2023-10-09T04:24:57;101958.00;;;19.36;61.27
37298;BME280;30517;51.932;4.278;2023-10-09T04:27:59;101961.69;;;19.30;61.29
37298;BME280;30517;51.932;4.278;2023-10-09T04:31:08;101926.53;;;19.07;61.02
37298;BME280;30517;51.932;4.278;2023-10-09T04:34:11;101904.56;;;18.89;61.13
37298;BME280;30517;51.932;4.278;2023-10-09T04:37:30;101958.41;;;19.17;60.95
37298;BME280;30517;51.932;4.278;2023-10-09T04:40:38;101938.16;;;19.04;61.18
37298;BME280;30517;51.932;4.278;2023-10-09T04:43:49;101997.44;;;19.26;60.84
37298;BME280;30517;51.932;4.278;2023-10-09T04:46:50;101749.13;;;17.73;60.72
37298;BME280;30517;51.932;4.278;2023-10-09T04:50:09;102000.19;;;19.23;60.94
37298;BME280;30517;51.932;4.278;2023-10-09T04:53:28;101940.28;;;18.87;61.08
37298;BME280;30517;51.932;4.278;2023-10-09T04:56:42;101927.91;;;18.83;60.67
37298;BME280;30517;51.932;4.278;2023-10-09T04:59:51;102005.47;;;19.26;60.75
37298;BME280;30517;51.932;4.278;2023-10-09T05:02:51;102004.63;;;19.24;60.75
37298;BME280;30517;51.932;4.278;2023-10-09T05:05:53;101995.88;;;19.14;60.75
37298;BME280;30517;51.932;4.278;2023-10-09T05:09:18;102021.53;;;19.26;60.86
37298;BME280;30517;51.932;4.278;2023-10-09T05:12:19;101947.47;;;18.83;60.65
37298;BME280;30517;51.932;4.278;2023-10-09T05:15:25;101999.47;;;19.15;60.60
37298;BME280;30517;51.932;4.278;2023-10-09T05:18:33;102010.88;;;19.23;60.56
37298;BME280;30517;51.932;4.278;2023-10-09T05:21:37;102004.75;;;19.18;60.68
37298;BME280;30517;51.932;4.278;2023-10-09T05:24:40;101986.31;;;19.02;60.84
37298;BME280;30517;51.932;4.278;2023-10-09T05:27:48;101983.50;;;19.09;60.52
37298;BME280;30517;51.932;4.278;2023-10-09T05:30:57;101992.38;;;19.11;60.55
37298;BME280;30517;51.932;4.278;2023-10-09T05:34:32;101986.91;;;19.17;60.50
37298;BME280;30517;51.932;4.278;2023-10-09T05:37:33;101994.84;;;19.21;60.53
37298;BME280;30517;51.932;4.278;2023-10-09T05:40:33;102003.75;;;19.22;60.34
37298;BME280;30517;51.932;4.278;2023-10-09T05:43:34;102006.47;;;19.20;60.41
37298;BME280;30517;51.932;4.278;2023-10-09T05:46:53;101976.41;;;19.08;60.18
37298;BME280;30517;51.932;4.278;2023-10-09T05:50:11;101992.22;;;19.20;60.33
37298;BME280;30517;51.932;4.278;2023-10-09T05:53:13;101933.25;;;18.83;60.34
37298;BME280;30517;51.932;4.278;2023-10-09T05:56:33;101986.03;;;19.16;60.60
37298;BME280;30517;51.932;4.278;2023-10-09T05:59:58;101986.88;;;19.20;60.57
37298;BME280;30517;51.932;4.278;2023-10-09T06:03:17;101945.31;;;19.02;60.14
37298;BME280;30517;51.932;4.278;2023-10-09T06:06:23;101985.97;;;19.19;60.47
37298;BME280;30517;51.932;4.278;2023-10-09T06:09:41;101963.69;;;19.19;60.50
37298;BME280;30517;51.932;4.278;2023-10-09T06:12:51;101951.47;;;19.06;60.40
37298;BME280;30517;51.932;4.278;2023-10-09T06:15:55;101931.03;;;19.03;60.43
37298;BME280;30517;51.932;4.278;2023-10-09T06:19:19;101942.31;;;19.19;60.37
37298;BME280;30517;51.932;4.278;2023-10-09T06:22:21;101963.78;;;19.14;60.36
37298;BME280;30517;51.932;4.278;2023-10-09T06:25:39;101958.47;;;18.63;61.54
37298;BME280;30517;51.932;4.278;2023-10-09T06:28:41;102002.97;;;19.17;61.04
37298;BME280;30517;51.932;4.278;2023-10-09T06:31:48;101973.88;;;19.00;61.37
37298;BME280;30517;51.932;4.278;2023-10-09T06:34:58;102001.19;;;19.17;61.00
37298;BME280;30517;51.932;4.278;2023-10-09T06:38:25;102021.66;;;19.20;60.89
37298;BME280;30517;51.932;4.278;2023-10-09T06:42:00;101997.75;;;19.11;60.76
37298;BME280;30517;51.932;4.278;2023-10-09T06:45:21;102010.09;;;19.16;60.82
37298;BME280;30517;51.932;4.278;2023-10-09T06:48:43;101997.81;;;19.08;60.69
37298;BME280;30517;51.932;4.278;2023-10-09T06:51:45;102027.03;;;19.17;60.78
37298;BME280;30517;51.932;4.278;2023-10-09T06:54:46;102022.63;;;19.14;60.57
37298;BME280;30517;51.932;4.278;2023-10-09T07:01:30;102014.56;;;19.17;60.64
37298;BME280;30517;51.932;4.278;2023-10-09T07:04:45;101886.59;;;18.49;60.69
37298;BME280;30517;51.932;4.278;2023-10-09T07:07:48;101986.03;;;19.16;60.77
37298;BME280;30517;51.932;4.278;2023-10-09T07:11:31;102011.97;;;19.13;60.67
37298;BME280;30517;51.932;4.278;2023-10-09T07:14:51;101996.72;;;19.18;60.53
37298;BME280;30517;51.932;4.278;2023-10-09T07:18:10;102021.72;;;19.15;60.53
37298;BME280;30517;51.932;4.278;2023-10-09T07:21:21;101919.97;;;18.27;63.86
37298;BME280;30517;51.932;4.278;2023-10-09T07:24:27;102001.69;;;18.37;66.32
37298;BME280;30517;51.932;4.278;2023-10-09T07:27:36;101979.03;;;18.07;68.68
37298;BME280;30517;51.932;4.278;2023-10-09T07:30:50;102028.47;;;18.32;69.89
37298;BME280;30517;51.932;4.278;2023-10-09T07:33:56;102015.16;;;18.31;70.35
37298;BME280;30517;51.932;4.278;2023-10-09T07:36:56;102037.13;;;19.02;66.53
37298;BME280;30517;51.932;4.278;2023-10-09T07:39:56;101965.13;;;18.93;64.78
37298;BME280;30517;51.932;4.278;2023-10-09T07:42:56;102008.88;;;19.34;63.57
37298;BME280;30517;51.932;4.278;2023-10-09T07:46:03;102013.22;;;19.40;63.23
37298;BME280;30517;51.932;4.278;2023-10-09T07:49:03;101988.47;;;19.29;62.48
37298;BME280;30517;51.932;4.278;2023-10-09T07:52:10;101968.16;;;19.18;62.51
37298;BME280;30517;51.932;4.278;2023-10-09T07:55:11;101984.97;;;19.25;62.44
37298;BME280;30517;51.932;4.278;2023-10-09T07:58:25;101982.13;;;19.33;62.38
37298;BME280;30517;51.932;4.278;2023-10-09T08:01:24;102000.72;;;19.40;62.37
37298;BME280;30517;51.932;4.278;2023-10-09T08:04:27;102004.31;;;19.39;62.23
37298;BME280;30517;51.932;4.278;2023-10-09T08:07:46;101977.78;;;19.27;62.13
37298;BME280;30517;51.932;4.278;2023-10-09T08:11:17;101988.44;;;19.30;61.96
37298;BME280;30517;51.932;4.278;2023-10-09T08:14:42;102003.38;;;19.42;62.10
37298;BME280;30517;51.932;4.278;2023-10-09T08:17:57;102004.31;;;19.39;61.98
37298;BME280;30517;51.932;4.278;2023-10-09T08:21:08;102005.19;;;19.40;61.75
37298;BME280;30517;51.932;4.278;2023-10-09T08:24:10;102000.88;;;19.33;61.81
37298;BME280;30517;51.932;4.278;2023-10-09T08:27:30;102029.19;;;19.44;61.62
37298;BME280;30517;51.932;4.278;2023-10-09T08:30:30;102022.31;;;19.31;61.61
37298;BME280;30517;51.932;4.278;2023-10-09T08:33:42;102016.31;;;19.18;61.70
37298;BME280;30517;51.932;4.278;2023-10-09T08:36:42;102049.00;;;19.33;61.54
37298;BME280;30517;51.932;4.278;2023-10-09T08:39:50;102034.97;;;19.23;61.55
37298;BME280;30517;51.932;4.278;2023-10-09T08:42:53;102048.13;;;19.32;61.65
37298;BME280;30517;51.932;4.278;2023-10-09T08:45:54;102054.47;;;19.28;61.76
37298;BME280;30517;51.932;4.278;2023-10-09T08:48:59;102012.13;;;19.04;61.59
37298;BME280;30517;51.932;4.278;2023-10-09T08:51:59;102091.56;;;19.46;61.64
37298;BME280;30517;51.932;4.278;2023-10-09T08:55:02;102024.59;;;19.05;61.64
37298;BME280;30517;51.932;4.278;2023-10-09T08:58:05;102039.66;;;19.09;61.68
37298;BME280;30517;51.932;4.278;2023-10-09T09:01:16;102069.72;;;19.23;61.56
37298;BME280;30517;51.932;4.278;2023-10-09T09:04:40;102097.22;;;19.31;61.66
37298;BME280;30517;51.932;4.278;2023-10-09T09:07:39;102116.41;;;19.53;61.47
37298;BME280;30517;51.932;4.278;2023-10-09T09:10:42;102115.19;;;19.23;63.05
37298;BME280;30517;51.932;4.278;2023-10-09T09:13:48;102108.53;;;19.44;62.11
37298;BME280;30517;51.932;4.278;2023-10-09T09:16:47;102057.25;;;19.22;61.96
37298;BME280;30517;51.932;4.278;2023-10-09T09:19:47;102123.44;;;19.59;61.61
37298;BME280;30517;51.932;4.278;2023-10-09T09:22:53;102123.44;;;19.59;61.71
37298;BME280;30517;51.932;4.278;2023-10-09T09:25:56;102090.69;;;19.46;61.34
37298;BME280;30517;51.932;4.278;2023-10-09T09:28:58;102084.50;;;19.42;62.00
37298;BME280;30517;51.932;4.278;2023-10-09T09:31:58;102066.78;;;19.37;61.47
37298;BME280;30517;51.932;4.278;2023-10-09T09:35:14;102102.09;;;19.54;61.35
37298;BME280;30517;51.932;4.278;2023-10-09T09:38:19;102111.00;;;19.56;61.52
37298;BME280;30517;51.932;4.278;2023-10-09T09:41:23;102111.06;;;19.53;61.60
37298;BME280;30517;51.932;4.278;2023-10-09T09:44:23;102070.34;;;19.37;61.46
37298;BME280;30517;51.932;4.278;2023-10-09T09:47:30;102122.38;;;19.69;61.33
37298;BME280;30517;51.932;4.278;2023-10-09T09:50:35;102125.00;;;19.72;61.32
37298;BME280;30517;51.932;4.278;2023-10-09T09:53:42;102080.81;;;19.50;61.67
37298;BME280;30517;51.932;4.278;2023-10-09T09:56:47;102100.16;;;19.64;61.33
37298;BME280;30517;51.932;4.278;2023-10-09T09:59:50;102032.16;;;19.28;61.21
37298;BME280;30517;51.932;4.278;2023-10-09T10:02:51;102079.81;;;19.55;61.30
37298;BME280;30517;51.932;4.278;2023-10-09T10:05:55;102107.16;;;19.71;61.25
37298;BME280;30517;51.932;4.278;2023-10-09T10:08:56;102110.56;;;19.79;61.04
37298;BME280;30517;51.932;4.278;2023-10-09T10:11:55;102086.84;;;19.59;61.25
37298;BME280;30517;51.932;4.278;2023-10-09T10:15:02;102109.84;;;19.71;61.41
37298;BME280;30517;51.932;4.278;2023-10-09T10:18:07;102092.19;;;19.59;61.38
37298;BME280;30517;51.932;4.278;2023-10-09T10:21:12;102130.94;;;19.86;61.18
37298;BME280;30517;51.932;4.278;2023-10-09T10:27:29;102083.22;;;19.62;61.15
37298;BME280;30517;51.932;4.278;2023-10-09T10:30:46;102091.19;;;19.65;61.30
37298;BME280;30517;51.932;4.278;2023-10-09T10:36:54;102126.38;;;19.92;61.47
37298;BME280;30517;51.932;4.278;2023-10-09T10:40:05;102133.44;;;19.96;61.15
37298;BME280;30517;51.932;4.278;2023-10-09T10:43:18;102134.34;;;19.95;61.29
37298;BME280;30517;51.932;4.278;2023-10-09T10:46:40;102103.50;;;19.75;61.38
37298;BME280;30517;51.932;4.278;2023-10-09T10:49:44;102144.88;;;20.04;61.20
37298;BME280;30517;51.932;4.278;2023-10-09T10:52:47;102138.59;;;20.06;61.08
37298;BME280;30517;51.932;4.278;2023-10-09T10:55:57;102142.00;;;20.13;60.95
37298;BME280;30517;51.932;4.278;2023-10-09T10:58:57;102136.81;;;20.05;61.12
37298;BME280;30517;51.932;4.278;2023-10-09T11:01:59;102110.31;;;19.92;61.06
37298;BME280;30517;51.932;4.278;2023-10-09T11:05:02;102132.38;;;20.04;61.06
37298;BME280;30517;51.932;4.278;2023-10-09T11:08:25;102074.06;;;19.77;61.25
37298;BME280;30517;51.932;4.278;2023-10-09T11:11:31;102107.66;;;19.90;60.97
37298;BME280;30517;51.932;4.278;2023-10-09T11:14:46;102104.75;;;20.01;61.08
37298;BME280;30517;51.932;4.278;2023-10-09T11:18:05;102128.44;;;20.21;61.07
37298;BME280;30517;51.932;4.278;2023-10-09T11:21:24;102130.19;;;20.22;61.01
37298;BME280;30517;51.932;4.278;2023-10-09T11:24:29;102116.88;;;20.19;61.07
37298;BME280;30517;51.932;4.278;2023-10-09T11:27:33;102108.94;;;20.14;60.83
37298;BME280;30517;51.932;4.278;2023-10-09T11:30:38;102089.59;;;20.00;61.17
37298;BME280;30517;51.932;4.278;2023-10-09T11:33:57;102104.75;;;20.01;60.93
37298;BME280;30517;51.932;4.278;2023-10-09T11:36:59;102123.09;;;20.21;60.94
37298;BME280;30517;51.932;4.278;2023-10-09T11:40:00;102106.31;;;20.11;60.93
37298;BME280;30517;51.932;4.278;2023-10-09T11:43:00;102116.06;;;20.15;61.01
37298;BME280;30517;51.932;4.278;2023-10-09T11:46:09;102142.41;;;20.35;60.88
37298;BME280;30517;51.932;4.278;2023-10-09T11:49:31;102100.72;;;20.22;60.84
37298;BME280;30517;51.932;4.278;2023-10-09T11:52:58;102106.88;;;20.27;60.96
37298;BME280;30517;51.932;4.278;2023-10-09T11:56:07;102089.16;;;20.20;60.82
37298;BME280;30517;51.932;4.278;2023-10-09T11:59:12;102090.75;;;20.28;60.88
37298;BME280;30517;51.932;4.278;2023-10-09T12:02:11;102128.84;;;20.43;60.95
37298;BME280;30517;51.932;4.278;2023-10-09T12:05:11;102119.88;;;20.44;60.95
37298;BME280;30517;51.932;4.278;2023-10-09T12:08:15;102124.19;;;20.49;60.81
37298;BME280;30517;51.932;4.278;2023-10-09T12:11:15;102114.38;;;20.50;60.62
37298;BME280;30517;51.932;4.278;2023-10-09T12:14:21;102109.91;;;20.50;60.71
37298;BME280;30517;51.932;4.278;2023-10-09T12:17:22;102081.56;;;20.39;60.84
37298;BME280;30517;51.932;4.278;2023-10-09T12:20:24;102076.44;;;20.29;60.72
37298;BME280;30517;51.932;4.278;2023-10-09T12:23:30;102117.81;;;20.57;60.89
37298;BME280;30517;51.932;4.278;2023-10-09T12:26:34;102115.13;;;20.58;60.73
37298;BME280;30517;51.932;4.278;2023-10-09T12:29:33;102088.53;;;20.47;60.43
37298;BME280;30517;51.932;4.278;2023-10-09T12:32:33;102091.09;;;20.52;60.60
37298;BME280;30517;51.932;4.278;2023-10-09T12:35:38;102092.88;;;20.53;60.60
37298;BME280;30517;51.932;4.278;2023-10-09T12:38:38;102073.34;;;20.48;60.83
37298;BME280;30517;51.932;4.278;2023-10-09T12:41:45;102114.81;;;20.70;60.72
37298;BME280;30517;51.932;4.278;2023-10-09T12:44:44;102063.59;;;20.44;60.82
37298;BME280;30517;51.932;4.278;2023-10-09T12:47:44;102122.75;;;20.75;60.79
37298;BME280;30517;51.932;4.278;2023-10-09T12:50:43;102111.34;;;20.65;60.82
37298;BME280;30517;51.932;4.278;2023-10-09T12:53:47;102127.09;;;20.79;60.65
37298;BME280;30517;51.932;4.278;2023-10-09T12:56:55;102060.88;;;20.47;60.73
37298;BME280;30517;51.932;4.278;2023-10-09T12:59:56;102045.91;;;20.37;60.78
37298;BME280;30517;51.932;4.278;2023-10-09T13:02:56;102120.91;;;20.77;60.72
37298;BME280;30517;51.932;4.278;2023-10-09T13:05:55;102069.63;;;20.52;60.66
37298;BME280;30517;51.932;4.278;2023-10-09T13:08:55;102111.94;;;20.78;60.70
37298;BME280;30517;51.932;4.278;2023-10-09T13:11:58;102109.28;;;20.76;60.77
37298;BME280;30517;51.932;4.278;2023-10-09T13:14:59;102125.94;;;20.91;60.75
37298;BME280;30517;51.932;4.278;2023-10-09T13:17:58;102066.88;;;20.58;60.70
37298;BME280;30517;51.932;4.278;2023-10-09T13:20:57;102086.09;;;20.75;60.74
37298;BME280;30517;51.932;4.278;2023-10-09T13:24:02;102020.19;;;20.29;60.66
37298;BME280;30517;51.932;4.278;2023-10-09T13:27:01;102115.97;;;20.96;60.86
37298;BME280;30517;51.932;4.278;2023-10-09T13:30:03;102115.03;;;20.97;60.67
37298;BME280;30517;51.932;4.278;2023-10-09T13:33:07;102107.84;;;20.99;60.82
37298;BME280;30517;51.932;4.278;2023-10-09T13:36:14;102101.69;;;20.95;60.60
37298;BME280;30517;51.932;4.278;2023-10-09T13:39:26;102099.81;;;20.97;60.61
37298;BME280;30517;51.932;4.278;2023-10-09T13:42:26;102116.66;;;21.04;60.66
37298;BME280;30517;51.932;4.278;2023-10-09T13:45:26;102112.19;;;21.03;60.67
37298;BME280;30517;51.932;4.278;2023-10-09T13:48:26;101984.78;;;19.78;62.79
37298;BME280;30517;51.932;4.278;2023-10-09T13:51:26;102069.16;;;20.36;62.39
37298;BME280;30517;51.932;4.278;2023-10-09T13:54:30;102071.00;;;20.71;61.50
37298;BME280;30517;51.932;4.278;2023-10-09T13:57:34;102053.91;;;20.75;60.71
37298;BME280;30517;51.932;4.278;2023-10-09T14:00:34;102097.63;;;21.13;60.50
37298;BME280;30517;51.932;4.278;2023-10-09T14:03:40;102070.28;;;20.99;60.39
37298;BME280;30517;51.932;4.278;2023-10-09T14:06:41;102078.09;;;21.08;60.17
37298;BME280;30517;51.932;4.278;2023-10-09T14:09:43;102099.31;;;21.17;60.14
37298;BME280;30517;51.932;4.278;2023-10-09T14:12:44;102072.88;;;21.04;60.27
37298;BME280;30517;51.932;4.278;2023-10-09T14:15:43;102099.25;;;21.19;60.10
37298;BME280;30517;51.932;4.278;2023-10-09T14:18:52;102051.53;;;20.99;60.31
37298;BME280;30517;51.932;4.278;2023-10-09T14:21:52;102069.03;;;21.12;60.23
37298;BME280;30517;51.932;4.278;2023-10-09T14:24:53;102111.34;;;21.35;60.47
37298;BME280;30517;51.932;4.278;2023-10-09T14:27:56;102108.63;;;21.37;60.18
37298;BME280;30517;51.932;4.278;2023-10-09T14:30:57;102016.16;;;20.85;60.59
37298;BME280;30517;51.932;4.278;2023-10-09T14:33:59;101993.97;;;20.78;60.35
37298;BME280;30517;51.932;4.278;2023-10-09T14:37:00;102091.31;;;21.50;60.46
37298;BME280;30517;51.932;4.278;2023-10-09T14:40:00;102092.06;;;21.55;60.27
37298;BME280;30517;51.932;4.278;2023-10-09T14:42:59;102039.84;;;21.33;60.35
37298;BME280;30517;51.932;4.278;2023-10-09T14:45:59;102104.88;;;21.44;61.07
37298;BME280;30517;51.932;4.278;2023-10-09T14:48:58;102103.25;;;21.71;60.01
37298;BME280;30517;51.932;4.278;2023-10-09T14:51:59;102110.13;;;21.80;60.02
37298;BME280;30517;51.932;4.278;2023-10-09T14:54:59;102075.47;;;21.71;59.63
37298;BME280;30517;51.932;4.278;2023-10-09T14:57:59;102097.59;;;21.80;59.98
37298;BME280;30517;51.932;4.278;2023-10-09T15:01:07;102086.81;;;21.82;59.82
37298;BME280;30517;51.932;4.278;2023-10-09T15:04:09;102093.81;;;21.87;59.87
37298;BME280;30517;51.932;4.278;2023-10-09T15:07:13;102074.34;;;21.79;59.76
37298;BME280;30517;51.932;4.278;2023-10-09T15:10:14;102053.03;;;21.73;59.69
37298;BME280;30517;51.932;4.278;2023-10-09T15:13:15;102087.31;;;21.95;59.87
37298;BME280;30517;51.932;4.278;2023-10-09T15:16:18;101997.50;;;21.44;59.61
37298;BME280;30517;51.932;4.278;2023-10-09T15:19:20;102076.63;;;21.93;59.67
37298;BME280;30517;51.932;4.278;2023-10-09T15:22:28;102099.97;;;21.91;60.13
37298;BME280;30517;51.932;4.278;2023-10-09T15:25:34;102103.47;;;21.93;60.16
37298;BME280;30517;51.932;4.278;2023-10-09T15:28:38;102104.88;;;22.06;59.83
37298;BME280;30517;51.932;4.278;2023-10-09T15:31:42;102048.47;;;21.77;59.68
37298;BME280;30517;51.932;4.278;2023-10-09T15:34:42;102055.50;;;21.81;59.57
37298;BME280;30517;51.932;4.278;2023-10-09T15:37:42;102055.47;;;21.82;59.70
37298;BME280;30517;51.932;4.278;2023-10-09T15:40:42;102091.47;;;22.05;59.61
37298;BME280;30517;51.932;4.278;2023-10-09T15:43:43;102061.69;;;21.83;59.48
37298;BME280;30517;51.932;4.278;2023-10-09T15:46:44;102083.44;;;22.03;59.51
37298;BME280;30517;51.932;4.278;2023-10-09T15:49:46;102114.56;;;22.12;59.40
37298;BME280;30517;51.932;4.278;2023-10-09T15:52:45;102081.91;;;21.96;59.66
37298;BME280;30517;51.932;4.278;2023-10-09T15:55:48;102098.34;;;22.15;59.35
37298;BME280;30517;51.932;4.278;2023-10-09T15:58:50;102090.50;;;22.07;59.65
37298;BME280;30517;51.932;4.278;2023-10-09T16:01:52;102104.59;;;22.16;59.64
37298;BME280;30517;51.932;4.278;2023-10-09T16:04:53;102064.19;;;21.89;59.75
37298;BME280;30517;51.932;4.278;2023-10-09T16:07:53;102110.91;;;22.15;59.69
37298;BME280;30517;51.932;4.278;2023-10-09T16:10:52;102118.25;;;22.08;59.87
37298;BME280;30517;51.932;4.278;2023-10-09T16:13:52;102117.28;;;22.10;59.81
37298;BME280;30517;51.932;4.278;2023-10-09T16:16:52;102127.19;;;22.08;59.90
37298;BME280;30517;51.932;4.278;2023-10-09T16:19:54;102076.78;;;21.87;59.68